Time,TemperatureF,DewpointF,PressureIn,WindDirection,WindDirectionDegrees,WindSpeedMPH,WindSpeedGustMPH,Humidity,HourlyPrecipIn,Conditions,Clouds,dailyrainin,SoftwareType,DateUTC
2013-05-22 00:00:00,69.6,67.2,29.96,NE,36,0.0,0.0,92,0.00,,,0.00,LWC V2.00 B2112,2013-05-22 04:00:00,
2013-05-22 00:01:00,69.6,67.2,29.96,NE,36,0.0,0.0,92,0.00,,,0.00,LWC V2.00 B2112,2013-05-22 04:01:00,
2013-05-22 00:06:00,69.6,67.2,29.96,NE,36,0.0,0.0,92,0.00,,,0.00,LWC V2.00 B2112,2013-05-22 04:06:00,
2013-05-22 00:11:00,69.6,67.5,29.96,NE,36,0.0,0.0,93,0.00,,,0.00,LWC V2.00 B2112,2013-05-22 04:11:00,
2013-05-22 00:16:00,69.6,67.5,29.96,NE,36,0.0,0.0,93,0.00,,,0.00,LWC V2.00 B2112,2013-05-22 04:16:00,
2013-05-22 00:21:00,69.6,67.5,29.96,NE,36,0.0,0.0,93,0.00,,,0.00,LWC V2.00 B2112,2013-05-22 04:21:00,
2013-05-22 00:26:00,69.6,67.5,29.97,NE,36,0.0,0.0,93,0.00,,,0.00,LWC V2.00 B2112,2013-05-22 04:26:00,
2013-05-22 00:31:00,69.6,67.5,29.97,NE,36,0.0,0.0,93,0.00,,,0.00,LWC V2.00 B2112,2013-05-22 04:31:00,
2013-05-22 00:36:00,69.4,67.3,29.97,NE,36,0.0,0.0,93,0.00,,,0.00,LWC V2.00 B2112,2013-05-22 04:36:00,
2013-05-22 00:41:00,69.4,67.3,29.96,NE,36,0.0,0.0,93,0.00,,,0.00,LWC V2.00 B2112,2013-05-22 04:41:00,
2013-05-22 00:46:00,69.4,67.6,29.96,NE,36,0.0,0.0,94,0.00,,,0.00,LWC V2.00 B2112,2013-05-22 04:46:00,
2013-05-22 00:51:00,69.4,67.6,29.96,NE,36,0.0,0.0,94,0.00,,,0.00,LWC V2.00 B2112,2013-05-22 04:51:00,
2013-05-22 00:56:00,69.4,67.6,29.97,NE,36,0.0,0.0,94,0.00,,,0.00,LWC V2.00 B2112,2013-05-22 04:56:00,
2013-05-22 01:01:00,69.4,67.6,29.97,NE,36,0.0,0.0,94,0.00,,,0.00,LWC V2.00 B2112,2013-05-22 05:01:00,
2013-05-22 01:06:00,69.3,67.5,29.97,NE,36,0.0,0.0,94,0.00,,,0.00,LWC V2.00 B2112,2013-05-22 05:06:00,
2013-05-22 01:11:00,69.3,67.8,29.97,NE,36,0.0,0.0,95,0.00,,,0.00,LWC V2.00 B2112,2013-05-22 05:11:00,
2013-05-22 01:16:00,69.4,67.9,29.97,NE,36,0.0,0.0,95,0.00,,,0.00,LWC V2.00 B2112,2013-05-22 05:16:00,
2013-05-22 01:21:00,69.4,67.9,29.97,NE,36,0.0,0.0,95,0.00,,,0.00,LWC V2.00 B2112,2013-05-22 05:21:00,
2013-05-22 01:26:00,69.4,67.9,29.96,NE,36,0.0,0.0,95,0.00,,,0.00,LWC V2.00 B2112,2013-05-22 05:26:00,
2013-05-22 01:31:00,69.4,67.9,29.96,NE,36,0.0,0.0,95,0.00,,,0.00,LWC V2.00 B2112,2013-05-22 05:31:00,
2013-05-22 01:36:00,69.4,67.9,29.96,NE,36,0.0,0.0,95,0.00,,,0.00,LWC V2.00 B2112,2013-05-22 05:36:00,
2013-05-22 01:41:00,69.4,67.9,29.96,NE,36,0.0,0.0,95,0.00,,,0.00,LWC V2.00 B2112,2013-05-22 05:41:00,
2013-05-22 01:46:00,69.4,67.9,29.96,NE,36,0.0,0.0,95,0.00,,,0.00,LWC V2.00 B2112,2013-05-22 05:46:00,
2013-05-22 01:51:00,69.4,67.9,29.96,NE,36,0.0,0.0,95,0.00,,,0.00,LWC V2.00 B2112,2013-05-22 05:51:00,
2013-05-22 01:56:00,69.4,68.2,29.95,NE,36,0.0,0.0,96,0.00,,,0.00,LWC V2.00 B2112,2013-05-22 05:56:00,
2013-05-22 02:01:00,69.6,68.4,29.95,NE,36,0.0,0.0,96,0.00,,,0.00,LWC V2.00 B2112,2013-05-22 06:01:00,
2013-05-22 02:06:00,69.6,68.4,29.95,NE,36,0.0,0.0,96,0.00,,,0.00,LWC V2.00 B2112,2013-05-22 06:06:00,
2013-05-22 02:11:00,69.8,68.6,29.95,NE,36,0.0,0.0,96,0.00,,,0.00,LWC V2.00 B2112,2013-05-22 06:11:00,
2013-05-22 02:16:00,69.8,68.6,29.95,NE,36,0.0,0.0,96,0.00,,,0.00,LWC V2.00 B2112,2013-05-22 06:16:00,
2013-05-22 02:21:00,69.9,68.7,29.95,NE,36,0.0,0.0,96,0.00,,,0.00,LWC V2.00 B2112,2013-05-22 06:21:00,
2013-05-22 02:26:00,69.9,68.7,29.95,NE,36,0.0,1.0,96,0.00,,,0.00,LWC V2.00 B2112,2013-05-22 06:26:00,
2013-05-22 02:31:00,69.9,68.7,29.95,NE,36,0.0,0.0,96,0.00,,,0.00,LWC V2.00 B2112,2013-05-22 06:31:00,
2013-05-22 02:36:00,69.9,68.7,29.95,NE,36,0.0,0.0,96,0.00,,,0.00,LWC V2.00 B2112,2013-05-22 06:36:00,
2013-05-22 02:38:00,69.9,68.7,29.95,NE,36,0.0,0.0,96,0.00,,,0.00,LWC V2.00 B2112,2013-05-22 06:38:00,
2013-05-22 02:43:00,69.9,68.7,29.95,NE,36,0.0,0.0,96,0.00,,,0.00,LWC V2.00 B2112,2013-05-22 06:43:00,
2013-05-22 02:48:00,69.9,68.7,29.95,NE,36,0.0,0.0,96,0.00,,,0.00,LWC V2.00 B2112,2013-05-22 06:48:00,
2013-05-22 02:53:00,69.9,68.7,29.95,NE,36,0.0,0.0,96,0.00,,,0.00,LWC V2.00 B2112,2013-05-22 06:53:00,
2013-05-22 02:58:00,69.9,68.7,29.95,NE,36,0.0,0.0,96,0.00,,,0.00,LWC V2.00 B2112,2013-05-22 06:58:00,
2013-05-22 03:03:00,69.9,68.7,29.95,NE,36,0.0,0.0,96,0.00,,,0.00,LWC V2.00 B2112,2013-05-22 07:03:00,
2013-05-22 03:08:00,69.9,68.7,29.95,NE,36,0.0,0.0,96,0.00,,,0.00,LWC V2.00 B2112,2013-05-22 07:08:00,
2013-05-22 03:13:00,69.9,68.7,29.95,NE,36,0.0,0.0,96,0.00,,,0.00,LWC V2.00 B2112,2013-05-22 07:13:00,
2013-05-22 03:18:00,69.9,68.7,29.95,NE,36,0.0,0.0,96,0.00,,,0.00,LWC V2.00 B2112,2013-05-22 07:18:00,
2013-05-22 03:23:00,69.9,68.7,29.95,NE,36,0.0,0.0,96,0.00,,,0.00,LWC V2.00 B2112,2013-05-22 07:23:00,
2013-05-22 03:28:00,69.9,68.7,29.95,NE,36,0.0,0.0,96,0.00,,,0.00,LWC V2.00 B2112,2013-05-22 07:28:00,
2013-05-22 03:33:00,69.9,68.7,29.95,NE,36,0.0,0.0,96,0.00,,,0.00,LWC V2.00 B2112,2013-05-22 07:33:00,
2013-05-22 03:38:00,69.9,68.7,29.95,NE,36,0.0,0.0,96,0.00,,,0.00,LWC V2.00 B2112,2013-05-22 07:38:00,
2013-05-22 03:43:00,69.9,68.7,29.94,NE,36,0.0,0.0,96,0.00,,,0.00,LWC V2.00 B2112,2013-05-22 07:43:00,
2013-05-22 03:48:00,69.9,68.7,29.94,NE,36,0.0,0.0,96,0.00,,,0.00,LWC V2.00 B2112,2013-05-22 07:48:00,
2013-05-22 03:53:00,69.9,68.7,29.94,NE,36,0.0,0.0,96,0.00,,,0.00,LWC V2.00 B2112,2013-05-22 07:53:00,
2013-05-22 03:58:00,69.9,68.4,29.94,NE,36,0.0,0.0,95,0.00,,,0.00,LWC V2.00 B2112,2013-05-22 07:58:00,
2013-05-22 04:03:00,69.9,68.4,29.94,NE,36,0.0,0.0,95,0.00,,,0.00,LWC V2.00 B2112,2013-05-22 08:03:00,
2013-05-22 04:08:00,69.9,68.4,29.94,NE,36,0.0,0.0,95,0.00,,,0.00,LWC V2.00 B2112,2013-05-22 08:08:00,
2013-05-22 04:13:00,69.9,68.4,29.94,NE,36,0.0,0.0,95,0.00,,,0.00,LWC V2.00 B2112,2013-05-22 08:13:00,
2013-05-22 04:18:00,69.9,68.4,29.94,NE,36,0.0,0.0,95,0.00,,,0.00,LWC V2.00 B2112,2013-05-22 08:18:00,
2013-05-22 04:23:00,69.9,68.4,29.94,NE,36,0.0,0.0,95,0.00,,,0.00,LWC V2.00 B2112,2013-05-22 08:23:00,
2013-05-22 04:28:00,69.9,68.4,29.93,NE,36,0.0,0.0,95,0.00,,,0.00,LWC V2.00 B2112,2013-05-22 08:28:00,
2013-05-22 04:33:00,69.9,68.4,29.93,NE,36,0.0,0.0,95,0.00,,,0.00,LWC V2.00 B2112,2013-05-22 08:33:00,
2013-05-22 04:38:00,69.9,68.4,29.93,NE,36,0.0,0.0,95,0.00,,,0.00,LWC V2.00 B2112,2013-05-22 08:38:00,
2013-05-22 04:43:00,69.9,68.4,29.93,NE,36,0.0,0.0,95,0.00,,,0.00,LWC V2.00 B2112,2013-05-22 08:43:00,
2013-05-22 04:48:00,69.8,68.3,29.93,NE,36,0.0,0.0,95,0.00,,,0.00,LWC V2.00 B2112,2013-05-22 08:48:00,
2013-05-22 04:53:00,69.8,68.3,29.93,NE,36,0.0,0.0,95,0.00,,,0.00,LWC V2.00 B2112,2013-05-22 08:53:00,
2013-05-22 04:58:00,69.8,68.3,29.92,NE,36,0.0,0.0,95,0.00,,,0.00,LWC V2.00 B2112,2013-05-22 08:58:00,
2013-05-22 05:03:00,69.8,68.3,29.92,NE,36,0.0,0.0,95,0.00,,,0.00,LWC V2.00 B2112,2013-05-22 09:03:00,
2013-05-22 05:08:00,69.8,68.3,29.92,NE,36,0.0,0.0,95,0.00,,,0.00,LWC V2.00 B2112,2013-05-22 09:08:00,
2013-05-22 05:13:00,69.8,68.3,29.92,NE,36,0.0,0.0,95,0.00,,,0.00,LWC V2.00 B2112,2013-05-22 09:13:00,
2013-05-22 05:18:00,69.8,68.3,29.92,NE,36,0.0,0.0,95,0.00,,,0.00,LWC V2.00 B2112,2013-05-22 09:18:00,
2013-05-22 05:23:00,69.8,68.3,29.92,NE,36,0.0,0.0,95,0.00,,,0.00,LWC V2.00 B2112,2013-05-22 09:23:00,
2013-05-22 05:28:00,69.8,68.0,29.92,NE,36,0.0,0.0,94,0.00,,,0.00,LWC V2.00 B2112,2013-05-22 09:28:00,
2013-05-22 05:33:00,69.6,67.8,29.92,NE,36,0.0,0.0,94,0.00,,,0.00,LWC V2.00 B2112,2013-05-22 09:33:00,
2013-05-22 05:38:00,69.6,67.8,29.92,NE,36,0.0,0.0,94,0.00,,,0.00,LWC V2.00 B2112,2013-05-22 09:38:00,
2013-05-22 05:43:00,69.6,67.8,29.92,NE,36,0.0,0.0,94,0.00,,,0.00,LWC V2.00 B2112,2013-05-22 09:43:00,
2013-05-22 05:48:00,69.4,67.6,29.92,NE,36,0.0,0.0,94,0.00,,,0.00,LWC V2.00 B2112,2013-05-22 09:48:00,
2013-05-22 05:53:00,69.4,67.6,29.92,NE,36,0.0,0.0,94,0.00,,,0.00,LWC V2.00 B2112,2013-05-22 09:53:00,
2013-05-22 05:58:00,69.4,67.6,29.92,NE,36,0.0,0.0,94,0.00,,,0.00,LWC V2.00 B2112,2013-05-22 09:58:00,
2013-05-22 06:03:00,69.3,67.5,29.92,NE,36,0.0,1.0,94,0.00,,,0.00,LWC V2.00 B2112,2013-05-22 10:03:00,
2013-05-22 06:08:00,69.3,67.5,29.92,NE,36,0.0,0.0,94,0.00,,,0.00,LWC V2.00 B2112,2013-05-22 10:08:00,
2013-05-22 06:13:00,69.3,67.5,29.94,NE,36,0.0,0.0,94,0.00,,,0.00,LWC V2.00 B2112,2013-05-22 10:13:00,
2013-05-22 06:18:00,69.3,67.5,29.94,NE,36,0.0,0.0,94,0.00,,,0.00,LWC V2.00 B2112,2013-05-22 10:18:00,
2013-05-22 06:23:00,69.3,67.5,29.94,NE,36,0.0,0.0,94,0.00,,,0.00,LWC V2.00 B2112,2013-05-22 10:23:00,
2013-05-22 06:28:00,69.3,67.2,29.94,NE,36,0.0,0.0,93,0.00,,,0.00,LWC V2.00 B2112,2013-05-22 10:28:00,
2013-05-22 06:33:00,69.3,67.2,29.94,NE,36,0.0,0.0,93,0.00,,,0.00,LWC V2.00 B2112,2013-05-22 10:33:00,
2013-05-22 06:38:00,69.3,67.2,29.94,NE,36,0.0,0.0,93,0.00,,,0.00,LWC V2.00 B2112,2013-05-22 10:38:00,
2013-05-22 06:43:00,69.3,67.2,29.95,NE,36,0.0,0.0,93,0.00,,,0.00,LWC V2.00 B2112,2013-05-22 10:43:00,
2013-05-22 06:48:00,69.3,66.9,29.95,NE,36,0.0,0.0,92,0.00,,,0.00,LWC V2.00 B2112,2013-05-22 10:48:00,
2013-05-22 06:53:00,69.3,67.2,29.95,NE,36,0.0,0.0,93,0.00,,,0.00,LWC V2.00 B2112,2013-05-22 10:53:00,
2013-05-22 06:58:00,69.4,67.0,29.96,NE,36,0.0,0.0,92,0.00,,,0.00,LWC V2.00 B2112,2013-05-22 10:58:00,
2013-05-22 07:03:00,69.3,66.9,29.96,NE,36,0.0,0.0,92,0.00,,,0.00,LWC V2.00 B2112,2013-05-22 11:03:00,
2013-05-22 07:08:00,69.3,66.9,29.96,NE,36,0.0,1.0,92,0.00,,,0.00,LWC V2.00 B2112,2013-05-22 11:08:00,
2013-05-22 07:13:00,69.4,67.0,29.96,NE,36,0.0,1.0,92,0.00,,,0.00,LWC V2.00 B2112,2013-05-22 11:13:00,
2013-05-22 07:18:00,69.4,67.0,29.96,NE,36,0.0,0.0,92,0.00,,,0.00,LWC V2.00 B2112,2013-05-22 11:18:00,
2013-05-22 07:23:00,69.4,66.7,29.96,NE,36,0.0,0.0,91,0.00,,,0.00,LWC V2.00 B2112,2013-05-22 11:23:00,
2013-05-22 07:28:00,69.4,66.7,29.96,NE,36,0.0,0.0,91,0.00,,,0.00,LWC V2.00 B2112,2013-05-22 11:28:00,
2013-05-22 07:33:00,69.4,66.7,29.96,NE,36,0.0,0.0,91,0.00,,,0.00,LWC V2.00 B2112,2013-05-22 11:33:00,
2013-05-22 07:38:00,69.6,66.8,29.96,NE,36,0.0,0.0,91,0.00,,,0.00,LWC V2.00 B2112,2013-05-22 11:38:00,
2013-05-22 07:43:00,69.6,66.8,29.96,NE,36,0.0,0.0,91,0.00,,,0.00,LWC V2.00 B2112,2013-05-22 11:43:00,
2013-05-22 07:48:00,69.6,66.8,29.96,NE,36,0.0,0.0,91,0.00,,,0.00,LWC V2.00 B2112,2013-05-22 11:48:00,
2013-05-22 07:53:00,69.6,66.8,29.96,NE,36,0.0,0.0,91,0.00,,,0.00,LWC V2.00 B2112,2013-05-22 11:53:00,
2013-05-22 07:58:00,69.6,66.8,29.97,NE,36,0.0,1.0,91,0.00,,,0.00,LWC V2.00 B2112,2013-05-22 11:58:00,
2013-05-22 08:03:00,69.8,67.0,29.97,NE,36,0.0,0.0,91,0.00,,,0.00,LWC V2.00 B2112,2013-05-22 12:03:00,
2013-05-22 08:08:00,69.8,66.7,29.97,NE,36,0.0,0.0,90,0.00,,,0.00,LWC V2.00 B2112,2013-05-22 12:08:00,
2013-05-22 08:13:00,69.9,66.5,29.97,NE,36,0.0,0.0,89,0.00,,,0.00,LWC V2.00 B2112,2013-05-22 12:13:00,
2013-05-22 08:18:00,70.1,67.0,29.97,NE,36,0.0,0.0,90,0.00,,,0.00,LWC V2.00 B2112,2013-05-22 12:18:00,
2013-05-22 08:23:00,70.1,66.7,29.97,NE,36,0.0,0.0,89,0.00,,,0.00,LWC V2.00 B2112,2013-05-22 12:23:00,
2013-05-22 08:28:00,70.3,66.9,29.97,NE,36,0.0,0.0,89,0.00,,,0.00,LWC V2.00 B2112,2013-05-22 12:28:00,
2013-05-22 08:33:00,70.4,67.0,29.97,NE,36,0.0,0.0,89,0.00,,,0.00,LWC V2.00 B2112,2013-05-22 12:33:00,
2013-05-22 08:38:00,70.4,67.0,29.97,NE,36,0.0,0.0,89,0.00,,,0.00,LWC V2.00 B2112,2013-05-22 12:38:00,
2013-05-22 08:43:00,70.8,67.4,29.98,NE,36,0.0,0.0,89,0.00,,,0.00,LWC V2.00 B2112,2013-05-22 12:43:00,
2013-05-22 08:48:00,70.8,67.1,29.98,NE,36,0.0,0.0,88,0.00,,,0.00,LWC V2.00 B2112,2013-05-22 12:48:00,
2013-05-22 08:53:00,70.9,67.5,29.98,NE,36,0.0,0.0,89,0.00,,,0.00,LWC V2.00 B2112,2013-05-22 12:53:00,
2013-05-22 08:58:00,71.1,67.4,29.97,NE,36,0.0,0.0,88,0.00,,,0.00,LWC V2.00 B2112,2013-05-22 12:58:00,
2013-05-22 09:03:00,71.1,67.4,29.97,NE,36,0.0,1.0,88,0.00,,,0.00,LWC V2.00 B2112,2013-05-22 13:03:00,
2013-05-22 09:08:00,71.3,67.2,29.97,NE,36,0.0,1.0,87,0.00,,,0.00,LWC V2.00 B2112,2013-05-22 13:08:00,
2013-05-22 09:13:00,71.6,67.5,29.97,NE,36,0.0,0.0,87,0.00,,,0.00,LWC V2.00 B2112,2013-05-22 13:13:00,
2013-05-22 09:18:00,71.8,67.7,29.97,NE,36,0.0,0.0,87,0.00,,,0.00,LWC V2.00 B2112,2013-05-22 13:18:00,
2013-05-22 09:23:00,72.0,67.6,29.97,NE,36,0.0,1.0,86,0.00,,,0.00,LWC V2.00 B2112,2013-05-22 13:23:00,
2013-05-22 09:28:00,72.3,67.2,29.98,NE,36,0.0,1.0,84,0.00,,,0.00,LWC V2.00 B2112,2013-05-22 13:28:00,
2013-05-22 09:33:00,72.5,67.4,29.98,NE,36,0.0,0.0,84,0.00,,,0.00,LWC V2.00 B2112,2013-05-22 13:33:00,
2013-05-22 09:38:00,72.7,67.2,29.98,North,9,0.0,0.0,83,0.00,,,0.00,LWC V2.00 B2112,2013-05-22 13:38:00,
2013-05-22 09:43:00,73.0,67.2,29.98,North,9,0.0,1.0,82,0.00,,,0.00,LWC V2.00 B2112,2013-05-22 13:43:00,
2013-05-22 09:48:00,73.5,67.7,29.98,North,9,0.0,0.0,82,0.00,,,0.00,LWC V2.00 B2112,2013-05-22 13:48:00,
2013-05-22 09:53:00,73.7,67.8,29.98,North,9,0.0,0.0,82,0.00,,,0.00,LWC V2.00 B2112,2013-05-22 13:53:00,
2013-05-22 09:58:00,73.9,67.7,29.98,North,9,0.0,0.0,81,0.00,,,0.00,LWC V2.00 B2112,2013-05-22 13:58:00,
2013-05-22 10:03:00,73.9,67.7,29.98,NNE,13,0.0,2.0,81,0.00,,,0.00,LWC V2.00 B2112,2013-05-22 14:03:00,
2013-05-22 10:08:00,74.0,67.8,29.98,NNE,13,0.0,0.0,81,0.00,,,0.00,LWC V2.00 B2112,2013-05-22 14:08:00,
2013-05-22 10:13:00,74.0,67.8,29.98,NNE,13,0.0,0.0,81,0.00,,,0.00,LWC V2.00 B2112,2013-05-22 14:13:00,
2013-05-22 10:18:00,74.0,67.8,29.98,NNE,13,0.0,1.0,81,0.00,,,0.00,LWC V2.00 B2112,2013-05-22 14:18:00,
2013-05-22 10:23:00,74.2,66.9,29.98,NNE,13,0.0,0.0,78,0.00,,,0.00,LWC V2.00 B2112,2013-05-22 14:23:00,
2013-05-22 10:28:00,74.4,67.1,29.98,NNE,13,0.0,0.0,78,0.00,,,0.00,LWC V2.00 B2112,2013-05-22 14:28:00,
2013-05-22 10:33:00,74.6,67.6,29.98,North,5,0.0,2.0,79,0.00,,,0.00,LWC V2.00 B2112,2013-05-22 14:33:00,
2013-05-22 10:38:00,74.7,67.0,29.98,North,5,0.0,0.0,77,0.00,,,0.00,LWC V2.00 B2112,2013-05-22 14:38:00,
2013-05-22 10:43:00,75.1,67.4,29.98,North,5,0.0,1.0,77,0.00,,,0.00,LWC V2.00 B2112,2013-05-22 14:43:00,
2013-05-22 10:48:00,75.3,67.2,29.98,North,5,0.0,0.0,76,0.00,,,0.00,LWC V2.00 B2112,2013-05-22 14:48:00,
2013-05-22 10:53:00,75.8,67.3,29.98,North,5,0.0,1.0,75,0.00,,,0.00,LWC V2.00 B2112,2013-05-22 14:53:00,
2013-05-22 10:58:00,76.1,66.8,29.99,North,5,0.0,0.0,73,0.00,,,0.00,LWC V2.00 B2112,2013-05-22 14:58:00,
2013-05-22 11:03:00,76.5,67.2,29.99,North,5,0.0,1.0,73,0.00,,,0.00,LWC V2.00 B2112,2013-05-22 15:03:00,
2013-05-22 11:08:00,76.8,67.5,29.99,North,5,0.0,1.0,73,0.00,,,0.00,LWC V2.00 B2112,2013-05-22 15:08:00,
2013-05-22 11:13:00,76.8,67.1,29.99,North,5,0.0,1.0,72,0.00,,,0.00,LWC V2.00 B2112,2013-05-22 15:13:00,
2013-05-22 11:18:00,76.8,67.9,29.99,North,5,0.0,0.0,74,0.00,,,0.00,LWC V2.00 B2112,2013-05-22 15:18:00,
2013-05-22 11:23:00,76.8,67.9,29.99,North,5,0.0,0.0,74,0.00,,,0.00,LWC V2.00 B2112,2013-05-22 15:23:00,
2013-05-22 11:28:00,76.7,67.4,29.99,North,5,0.0,0.0,73,0.00,,,0.00,LWC V2.00 B2112,2013-05-22 15:28:00,
2013-05-22 11:33:00,76.7,67.8,29.99,North,5,0.0,1.0,74,0.00,,,0.00,LWC V2.00 B2112,2013-05-22 15:33:00,
2013-05-22 11:38:00,76.7,67.8,29.99,North,5,0.0,0.0,74,0.00,,,0.00,LWC V2.00 B2112,2013-05-22 15:38:00,
2013-05-22 11:43:00,77.0,67.7,29.99,North,5,0.0,1.0,73,0.00,,,0.00,LWC V2.00 B2112,2013-05-22 15:43:00,
2013-05-22 11:48:00,77.2,68.3,29.99,North,5,1.0,1.0,74,0.00,,,0.00,LWC V2.00 B2112,2013-05-22 15:48:00,
2013-05-22 11:53:00,77.4,68.4,29.99,North,5,0.0,1.0,74,0.00,,,0.00,LWC V2.00 B2112,2013-05-22 15:53:00,
2013-05-22 11:58:00,77.6,69.0,29.99,North,5,0.0,0.0,75,0.00,,,0.00,LWC V2.00 B2112,2013-05-22 15:58:00,
2013-05-22 12:03:00,77.6,67.4,29.99,North,5,0.0,1.0,71,0.00,,,0.00,LWC V2.00 B2112,2013-05-22 16:03:00,
2013-05-22 12:08:00,77.7,67.9,29.99,North,5,0.0,1.0,72,0.00,,,0.00,LWC V2.00 B2112,2013-05-22 16:08:00,
2013-05-22 12:13:00,77.9,67.7,29.98,North,5,0.0,0.0,71,0.00,,,0.00,LWC V2.00 B2112,2013-05-22 16:13:00,
2013-05-22 12:18:00,77.7,67.5,29.98,North,5,0.0,0.0,71,0.00,,,0.00,LWC V2.00 B2112,2013-05-22 16:18:00,
2013-05-22 12:23:00,77.7,67.9,29.98,North,5,0.0,1.0,72,0.00,,,0.00,LWC V2.00 B2112,2013-05-22 16:23:00,
2013-05-22 12:28:00,77.6,67.0,29.97,North,5,0.0,0.0,70,0.00,,,0.00,LWC V2.00 B2112,2013-05-22 16:28:00,
2013-05-22 12:33:00,77.7,68.3,29.97,North,5,0.0,0.0,73,0.00,,,0.00,LWC V2.00 B2112,2013-05-22 16:33:00,
2013-05-22 12:38:00,77.7,67.9,29.97,North,5,0.0,0.0,72,0.00,,,0.00,LWC V2.00 B2112,2013-05-22 16:38:00,
2013-05-22 12:43:00,77.7,68.7,29.97,North,5,0.0,0.0,74,0.00,,,0.00,LWC V2.00 B2112,2013-05-22 16:43:00,
2013-05-22 12:48:00,77.9,68.5,29.97,North,5,0.0,0.0,73,0.00,,,0.00,LWC V2.00 B2112,2013-05-22 16:48:00,
2013-05-22 12:53:00,78.1,69.5,29.97,North,5,0.0,1.0,75,0.00,,,0.00,LWC V2.00 B2112,2013-05-22 16:53:00,
2013-05-22 12:58:00,79.0,68.4,29.97,North,9,0.0,2.0,70,0.00,,,0.00,LWC V2.00 B2112,2013-05-22 16:58:00,
2013-05-22 13:03:00,79.0,69.6,29.97,North,9,0.0,0.0,73,0.00,,,0.00,LWC V2.00 B2112,2013-05-22 17:03:00,
2013-05-22 13:09:00,79.0,69.6,29.97,North,9,0.0,0.0,73,0.00,,,0.00,LWC V2.00 B2112,2013-05-22 17:09:00,
2013-05-22 13:14:00,79.0,69.2,29.96,North,9,0.0,0.0,72,0.00,,,0.00,LWC V2.00 B2112,2013-05-22 17:14:00,
2013-05-22 13:19:00,79.6,68.9,29.96,North,9,0.0,0.0,70,0.00,,,0.00,LWC V2.00 B2112,2013-05-22 17:19:00,
2013-05-22 13:24:00,79.6,67.7,29.96,North,9,0.0,0.0,67,0.00,,,0.00,LWC V2.00 B2112,2013-05-22 17:24:00,
2013-05-22 13:29:00,79.8,69.5,29.95,North,9,0.0,1.0,71,0.00,,,0.00,LWC V2.00 B2112,2013-05-22 17:29:00,
2013-05-22 13:34:00,80.1,69.0,29.95,North,9,0.0,1.0,69,0.00,,,0.00,LWC V2.00 B2112,2013-05-22 17:34:00,
2013-05-22 13:39:00,80.3,68.3,29.95,North,9,0.0,0.0,67,0.00,,,0.00,LWC V2.00 B2112,2013-05-22 17:39:00,
2013-05-22 13:44:00,80.7,69.1,29.94,North,9,0.0,0.0,68,0.00,,,0.00,LWC V2.00 B2112,2013-05-22 17:44:00,
2013-05-22 13:49:00,81.4,69.8,29.94,North,9,0.0,0.0,68,0.00,,,0.00,LWC V2.00 B2112,2013-05-22 17:49:00,
2013-05-22 13:54:00,81.8,69.3,29.94,North,351,0.0,0.0,66,0.00,,,0.00,LWC V2.00 B2112,2013-05-22 17:54:00,
2013-05-22 13:59:00,82.8,69.3,29.93,North,351,0.0,0.0,64,0.00,,,0.00,LWC V2.00 B2112,2013-05-22 17:59:00,
2013-05-22 14:04:00,82.6,69.6,29.93,North,351,0.0,1.0,65,0.00,,,0.00,LWC V2.00 B2112,2013-05-22 18:04:00,
2013-05-22 14:09:00,82.6,68.2,29.93,North,351,0.0,0.0,62,0.00,,,0.00,LWC V2.00 B2112,2013-05-22 18:09:00,
2013-05-22 14:14:00,81.8,68.4,29.93,North,351,0.0,0.0,64,0.00,,,0.00,LWC V2.00 B2112,2013-05-22 18:14:00,
2013-05-22 14:19:00,81.4,67.6,29.93,NNE,17,0.0,3.0,63,0.00,,,0.00,LWC V2.00 B2112,2013-05-22 18:19:00,
2013-05-22 14:24:00,80.9,69.3,29.93,NNE,17,0.0,0.0,68,0.00,,,0.00,LWC V2.00 B2112,2013-05-22 18:24:00,
2013-05-22 14:29:00,81.1,67.7,29.92,NNW,333,0.0,2.0,64,0.00,,,0.00,LWC V2.00 B2112,2013-05-22 18:29:00,
2013-05-22 14:34:00,81.2,67.8,29.92,NNW,333,0.0,1.0,64,0.00,,,0.00,LWC V2.00 B2112,2013-05-22 18:34:00,
2013-05-22 14:39:00,81.8,67.5,29.92,NNW,333,0.0,0.0,62,0.00,,,0.00,LWC V2.00 B2112,2013-05-22 18:39:00,
2013-05-22 14:44:00,81.8,68.4,29.92,NNW,333,0.0,1.0,64,0.00,,,0.00,LWC V2.00 B2112,2013-05-22 18:44:00,
2013-05-22 14:49:00,81.6,68.7,29.92,NNW,333,0.0,0.0,65,0.00,,,0.00,LWC V2.00 B2112,2013-05-22 18:49:00,
2013-05-22 14:54:00,82.0,67.7,29.92,NNW,333,0.0,1.0,62,0.00,,,0.00,LWC V2.00 B2112,2013-05-22 18:54:00,
2013-05-22 14:59:00,82.0,69.0,29.91,NNW,333,0.0,0.0,65,0.00,,,0.00,LWC V2.00 B2112,2013-05-22 18:59:00,
2013-05-22 15:04:00,82.8,69.8,29.91,NNW,333,0.0,0.0,65,0.00,,,0.00,LWC V2.00 B2112,2013-05-22 19:04:00,
2013-05-22 15:09:00,82.6,68.2,29.91,NNW,333,0.0,1.0,62,0.00,,,0.00,LWC V2.00 B2112,2013-05-22 19:09:00,
2013-05-22 15:14:00,82.4,69.4,29.91,NNW,333,0.0,0.0,65,0.00,,,0.00,LWC V2.00 B2112,2013-05-22 19:14:00,
2013-05-22 15:19:00,82.8,67.5,29.91,NNW,333,0.0,0.0,60,0.00,,,0.00,LWC V2.00 B2112,2013-05-22 19:19:00,
2013-05-22 15:24:00,83.4,68.5,29.91,NNW,333,0.0,0.0,61,0.00,,,0.00,LWC V2.00 B2112,2013-05-22 19:24:00,
2013-05-22 15:29:00,83.0,68.1,29.91,NNW,333,0.0,1.0,61,0.00,,,0.00,LWC V2.00 B2112,2013-05-22 19:29:00,
2013-05-22 15:34:00,83.4,69.5,29.91,NNW,333,0.0,1.0,63,0.00,,,0.00,LWC V2.00 B2112,2013-05-22 19:34:00,
2013-05-22 15:39:00,83.2,69.3,29.91,NNW,333,0.0,0.0,63,0.00,,,0.00,LWC V2.00 B2112,2013-05-22 19:39:00,
2013-05-22 15:44:00,82.8,69.3,29.91,NNW,333,0.0,0.0,64,0.00,,,0.00,LWC V2.00 B2112,2013-05-22 19:44:00,
2013-05-22 15:49:00,82.0,69.5,29.91,NNW,333,0.0,0.0,66,0.00,,,0.00,LWC V2.00 B2112,2013-05-22 19:49:00,
2013-05-22 15:54:00,81.6,68.7,29.91,NNW,333,0.0,1.0,65,0.00,,,0.00,LWC V2.00 B2112,2013-05-22 19:54:00,
2013-05-22 15:59:00,81.8,69.3,29.91,NNW,333,0.0,1.0,66,0.00,,,0.00,LWC V2.00 B2112,2013-05-22 19:59:00,
2013-05-22 16:04:00,81.6,69.1,29.91,NNW,333,1.0,1.0,66,0.00,,,0.00,LWC V2.00 B2112,2013-05-22 20:04:00,
2013-05-22 16:09:00,81.4,68.0,29.91,NNW,333,0.0,0.0,64,0.00,,,0.00,LWC V2.00 B2112,2013-05-22 20:09:00,
2013-05-22 16:14:00,81.1,68.6,29.90,NNW,333,0.0,0.0,66,0.00,,,0.00,LWC V2.00 B2112,2013-05-22 20:14:00,
2013-05-22 16:19:00,81.1,67.7,29.90,NE,46,0.0,2.0,64,0.00,,,0.00,LWC V2.00 B2112,2013-05-22 20:19:00,
2013-05-22 16:24:00,80.9,69.3,29.90,NE,46,0.0,0.0,68,0.00,,,0.00,LWC V2.00 B2112,2013-05-22 20:24:00,
2013-05-22 16:29:00,80.5,68.5,29.89,NE,46,0.0,0.0,67,0.00,,,0.00,LWC V2.00 B2112,2013-05-22 20:29:00,
2013-05-22 16:34:00,80.3,68.8,29.89,NE,46,0.0,0.0,68,0.00,,,0.00,LWC V2.00 B2112,2013-05-22 20:34:00,
2013-05-22 16:39:00,79.9,69.2,29.89,NNE,26,0.0,2.0,70,0.00,,,0.00,LWC V2.00 B2112,2013-05-22 20:39:00,
2013-05-22 16:44:00,80.1,68.6,29.88,NE,37,0.0,0.0,68,0.00,,,0.00,LWC V2.00 B2112,2013-05-22 20:44:00,
2013-05-22 16:49:00,80.1,67.2,29.88,NNE,28,0.0,3.0,65,0.00,,,0.00,LWC V2.00 B2112,2013-05-22 20:49:00,
2013-05-22 16:54:00,80.3,68.3,29.88,NNE,27,0.0,0.0,67,0.00,,,0.00,LWC V2.00 B2112,2013-05-22 20:54:00,
2013-05-22 16:59:00,80.1,67.7,29.88,NNE,28,0.0,0.0,66,0.00,,,0.00,LWC V2.00 B2112,2013-05-22 20:59:00,
2013-05-22 17:04:00,80.1,68.1,29.88,NNE,27,0.0,0.0,67,0.00,,,0.00,LWC V2.00 B2112,2013-05-22 21:04:00,
2013-05-22 17:09:00,80.1,67.7,29.88,NNE,23,1.0,1.0,66,0.00,,,0.00,LWC V2.00 B2112,2013-05-22 21:09:00,
2013-05-22 17:14:00,80.1,67.2,29.88,NNE,23,0.0,0.0,65,0.00,,,0.00,LWC V2.00 B2112,2013-05-22 21:14:00,
2013-05-22 17:19:00,80.1,68.1,29.88,NNE,23,0.0,0.0,67,0.00,,,0.00,LWC V2.00 B2112,2013-05-22 21:19:00,
2013-05-22 17:24:00,79.9,68.4,29.87,NNE,23,0.0,0.0,68,0.00,,,0.00,LWC V2.00 B2112,2013-05-22 21:24:00,
2013-05-22 17:29:00,79.9,67.9,29.87,NNE,23,0.0,0.0,67,0.00,,,0.00,LWC V2.00 B2112,2013-05-22 21:29:00,
2013-05-22 17:34:00,79.8,68.3,29.87,NNE,23,0.0,1.0,68,0.00,,,0.00,LWC V2.00 B2112,2013-05-22 21:34:00,
2013-05-22 17:39:00,79.8,67.0,29.87,NNE,23,1.0,1.0,65,0.00,,,0.00,LWC V2.00 B2112,2013-05-22 21:39:00,
2013-05-22 17:44:00,79.8,66.5,29.87,NNE,23,0.0,0.0,64,0.00,,,0.00,LWC V2.00 B2112,2013-05-22 21:44:00,
2013-05-22 17:49:00,79.9,66.6,29.87,East,84,0.0,1.0,64,0.00,,,0.00,LWC V2.00 B2112,2013-05-22 21:49:00,
2013-05-22 17:54:00,80.1,66.3,29.87,NNE,22,0.0,0.0,63,0.00,,,0.00,LWC V2.00 B2112,2013-05-22 21:54:00,
2013-05-22 17:59:00,80.1,66.8,29.87,NNE,22,0.0,0.0,64,0.00,,,0.00,LWC V2.00 B2112,2013-05-22 21:59:00,
2013-05-22 18:04:00,80.1,66.8,29.87,NNE,22,0.0,0.0,64,0.00,,,0.00,LWC V2.00 B2112,2013-05-22 22:04:00,
2013-05-22 18:09:00,80.1,67.7,29.87,NNE,22,0.0,0.0,66,0.00,,,0.00,LWC V2.00 B2112,2013-05-22 22:09:00,
2013-05-22 18:14:00,79.9,66.6,29.87,NNE,22,0.0,0.0,64,0.00,,,0.00,LWC V2.00 B2112,2013-05-22 22:14:00,
2013-05-22 18:19:00,80.1,66.3,29.87,WNW,296,1.0,2.0,63,0.00,,,0.00,LWC V2.00 B2112,2013-05-22 22:19:00,
2013-05-22 18:24:00,80.1,66.8,29.88,WNW,296,0.0,1.0,64,0.00,,,0.00,LWC V2.00 B2112,2013-05-22 22:24:00,
2013-05-22 18:29:00,79.8,67.8,29.88,WNW,296,1.0,2.0,67,0.00,,,0.00,LWC V2.00 B2112,2013-05-22 22:29:00,
2013-05-22 18:34:00,78.8,66.0,29.88,South,188,3.0,4.0,65,0.00,,,0.00,LWC V2.00 B2112,2013-05-22 22:34:00,
2013-05-22 18:39:00,76.5,68.4,29.89,West,267,0.0,0.0,76,0.72,,,0.09,LWC V2.00 B2112,2013-05-22 22:39:00,
2013-05-22 18:44:00,74.7,68.5,29.89,West,267,0.0,0.0,81,0.25,,,0.13,LWC V2.00 B2112,2013-05-22 22:44:00,
2013-05-22 18:49:00,73.7,68.6,29.89,West,267,0.0,0.0,84,0.08,,,0.13,LWC V2.00 B2112,2013-05-22 22:49:00,
2013-05-22 18:54:00,73.0,68.2,29.88,West,267,0.0,0.0,85,0.05,,,0.13,LWC V2.00 B2112,2013-05-22 22:54:00,
2013-05-22 18:59:00,72.5,68.4,29.88,West,267,0.0,0.0,87,0.00,,,0.13,LWC V2.00 B2112,2013-05-22 22:59:00,
2013-05-22 19:04:00,72.3,68.5,29.88,West,267,0.0,0.0,88,0.00,,,0.13,LWC V2.00 B2112,2013-05-22 23:04:00,
2013-05-22 19:09:00,72.1,68.7,29.88,West,267,0.0,0.0,89,0.00,,,0.13,LWC V2.00 B2112,2013-05-22 23:09:00,
2013-05-22 19:14:00,72.1,69.0,29.88,West,267,0.0,0.0,90,0.00,,,0.13,LWC V2.00 B2112,2013-05-22 23:14:00,
2013-05-22 19:19:00,72.0,69.2,29.88,West,267,0.0,0.0,91,0.00,,,0.13,LWC V2.00 B2112,2013-05-22 23:19:00,
2013-05-22 19:24:00,71.8,69.0,29.88,West,267,0.0,0.0,91,0.00,,,0.13,LWC V2.00 B2112,2013-05-22 23:24:00,
2013-05-22 19:29:00,71.8,69.0,29.88,West,267,0.0,0.0,91,0.00,,,0.13,LWC V2.00 B2112,2013-05-22 23:29:00,
2013-05-22 19:34:00,71.6,69.1,29.88,West,267,0.0,0.0,92,0.00,,,0.13,LWC V2.00 B2112,2013-05-22 23:34:00,
2013-05-22 19:39:00,71.6,69.1,29.88,West,267,0.0,0.0,92,0.00,,,0.13,LWC V2.00 B2112,2013-05-22 23:39:00,
2013-05-22 19:44:00,71.6,69.1,29.88,West,267,0.0,0.0,92,0.00,,,0.13,LWC V2.00 B2112,2013-05-22 23:44:00,
2013-05-22 19:49:00,71.6,69.5,29.88,West,267,0.0,0.0,93,0.00,,,0.13,LWC V2.00 B2112,2013-05-22 23:49:00,
2013-05-22 19:54:00,71.5,69.4,29.89,West,267,0.0,0.0,93,0.00,,,0.13,LWC V2.00 B2112,2013-05-22 23:54:00,
2013-05-22 19:59:00,71.5,69.4,29.89,West,267,0.0,0.0,93,0.00,,,0.13,LWC V2.00 B2112,2013-05-22 23:59:00,
2013-05-22 20:04:00,71.5,69.4,29.89,West,267,0.0,0.0,93,0.00,,,0.13,LWC V2.00 B2112,2013-05-23 00:04:00,
2013-05-22 20:09:00,71.5,69.4,29.89,West,267,0.0,0.0,93,0.00,,,0.13,LWC V2.00 B2112,2013-05-23 00:09:00,
2013-05-22 20:14:00,71.5,69.7,29.89,West,267,0.0,0.0,94,0.00,,,0.13,LWC V2.00 B2112,2013-05-23 00:14:00,
2013-05-22 20:19:00,71.3,69.5,29.89,West,267,0.0,0.0,94,0.00,,,0.13,LWC V2.00 B2112,2013-05-23 00:19:00,
2013-05-22 20:24:00,71.3,69.5,29.89,West,267,0.0,0.0,94,0.00,,,0.13,LWC V2.00 B2112,2013-05-23 00:24:00,
2013-05-22 20:29:00,71.1,69.3,29.89,West,267,0.0,0.0,94,0.00,,,0.13,LWC V2.00 B2112,2013-05-23 00:29:00,
2013-05-22 20:34:00,71.1,69.3,29.89,West,267,0.0,0.0,94,0.00,,,0.13,LWC V2.00 B2112,2013-05-23 00:34:00,
2013-05-22 20:39:00,70.9,69.1,29.91,West,267,0.0,0.0,94,0.00,,,0.13,LWC V2.00 B2112,2013-05-23 00:39:00,
2013-05-22 20:44:00,70.8,69.3,29.91,West,267,0.0,0.0,95,0.00,,,0.13,LWC V2.00 B2112,2013-05-23 00:44:00,
2013-05-22 20:49:00,70.8,69.3,29.91,West,267,0.0,0.0,95,0.00,,,0.13,LWC V2.00 B2112,2013-05-23 00:49:00,
2013-05-22 20:54:00,70.8,69.3,29.91,West,267,0.0,0.0,95,0.00,,,0.13,LWC V2.00 B2112,2013-05-23 00:54:00,
2013-05-22 20:59:00,70.8,69.3,29.91,West,267,0.0,0.0,95,0.00,,,0.13,LWC V2.00 B2112,2013-05-23 00:59:00,
2013-05-22 21:04:00,70.6,69.1,29.91,West,267,0.0,0.0,95,0.00,,,0.13,LWC V2.00 B2112,2013-05-23 01:04:00,
2013-05-22 21:09:00,70.6,69.4,29.91,West,267,0.0,0.0,96,0.00,,,0.13,LWC V2.00 B2112,2013-05-23 01:09:00,
2013-05-22 21:14:00,70.6,69.4,29.91,West,267,0.0,0.0,96,0.00,,,0.13,LWC V2.00 B2112,2013-05-23 01:14:00,
2013-05-22 21:19:00,70.6,69.4,29.91,West,267,0.0,0.0,96,0.00,,,0.13,LWC V2.00 B2112,2013-05-23 01:19:00,
2013-05-22 21:24:00,70.6,69.4,29.91,West,267,0.0,0.0,96,0.00,,,0.13,LWC V2.00 B2112,2013-05-23 01:24:00,
2013-05-22 21:29:00,70.4,69.2,29.91,West,267,0.0,0.0,96,0.00,,,0.13,LWC V2.00 B2112,2013-05-23 01:29:00,
2013-05-22 21:34:00,70.4,68.9,29.91,West,267,0.0,0.0,95,0.00,,,0.13,LWC V2.00 B2112,2013-05-23 01:34:00,
2013-05-22 21:39:00,70.3,68.8,29.92,West,267,0.0,0.0,95,0.00,,,0.13,LWC V2.00 B2112,2013-05-23 01:39:00,
2013-05-22 21:44:00,70.1,68.6,29.92,West,267,0.0,0.0,95,0.00,,,0.13,LWC V2.00 B2112,2013-05-23 01:44:00,
2013-05-22 21:49:00,69.9,68.4,29.92,West,267,0.0,0.0,95,0.00,,,0.13,LWC V2.00 B2112,2013-05-23 01:49:00,
2013-05-22 21:54:00,69.8,68.6,29.92,West,267,0.0,0.0,96,0.00,,,0.13,LWC V2.00 B2112,2013-05-23 01:54:00,
2013-05-22 21:59:00,69.8,68.6,29.92,West,267,0.0,0.0,96,0.00,,,0.13,LWC V2.00 B2112,2013-05-23 01:59:00,
2013-05-22 22:04:00,69.6,68.4,29.92,West,267,0.0,0.0,96,0.00,,,0.13,LWC V2.00 B2112,2013-05-23 02:04:00,
2013-05-22 22:09:00,69.6,68.4,29.92,West,267,0.0,0.0,96,0.00,,,0.13,LWC V2.00 B2112,2013-05-23 02:09:00,
2013-05-22 22:14:00,69.4,68.2,29.92,West,267,0.0,0.0,96,0.00,,,0.13,LWC V2.00 B2112,2013-05-23 02:14:00,
2013-05-22 22:19:00,69.3,68.1,29.92,West,267,0.0,0.0,96,0.00,,,0.13,LWC V2.00 B2112,2013-05-23 02:19:00,
2013-05-22 22:24:00,69.1,67.9,29.93,West,267,0.0,0.0,96,0.00,,,0.13,LWC V2.00 B2112,2013-05-23 02:24:00,
2013-05-22 22:29:00,69.1,67.9,29.93,West,267,0.0,0.0,96,0.00,,,0.13,LWC V2.00 B2112,2013-05-23 02:29:00,
2013-05-22 22:34:00,68.9,67.7,29.93,West,267,0.0,0.0,96,0.00,,,0.13,LWC V2.00 B2112,2013-05-23 02:34:00,
2013-05-22 22:39:00,68.8,67.6,29.93,West,267,0.0,0.0,96,0.00,,,0.13,LWC V2.00 B2112,2013-05-23 02:39:00,
2013-05-22 22:44:00,68.8,67.6,29.93,West,267,0.0,0.0,96,0.00,,,0.13,LWC V2.00 B2112,2013-05-23 02:44:00,
2013-05-22 22:49:00,68.6,67.4,29.93,West,267,0.0,0.0,96,0.00,,,0.13,LWC V2.00 B2112,2013-05-23 02:49:00,
2013-05-22 22:54:00,68.6,67.4,29.92,West,267,0.0,0.0,96,0.00,,,0.13,LWC V2.00 B2112,2013-05-23 02:54:00,
2013-05-22 22:59:00,68.4,67.2,29.92,West,267,0.0,0.0,96,0.00,,,0.13,LWC V2.00 B2112,2013-05-23 02:59:00,
2013-05-22 23:04:00,68.4,67.2,29.92,West,267,0.0,0.0,96,0.00,,,0.13,LWC V2.00 B2112,2013-05-23 03:04:00,
2013-05-22 23:09:00,68.4,67.2,29.92,West,267,0.0,0.0,96,0.00,,,0.13,LWC V2.00 B2112,2013-05-23 03:09:00,
2013-05-22 23:14:00,68.3,67.1,29.92,West,267,0.0,0.0,96,0.00,,,0.13,LWC V2.00 B2112,2013-05-23 03:14:00,
2013-05-22 23:19:00,68.4,67.5,29.92,West,267,0.0,0.0,97,0.00,,,0.13,LWC V2.00 B2112,2013-05-23 03:19:00,
2013-05-22 23:24:00,68.4,67.5,29.92,West,267,0.0,0.0,97,0.00,,,0.13,LWC V2.00 B2112,2013-05-23 03:24:00,
2013-05-22 23:29:00,68.4,67.5,29.92,West,267,0.0,0.0,97,0.00,,,0.13,LWC V2.00 B2112,2013-05-23 03:29:00,
2013-05-22 23:34:00,68.6,67.7,29.92,West,267,0.0,0.0,97,0.00,,,0.13,LWC V2.00 B2112,2013-05-23 03:34:00,
2013-05-22 23:39:00,68.8,67.9,29.92,West,267,0.0,0.0,97,0.00,,,0.13,LWC V2.00 B2112,2013-05-23 03:39:00,
2013-05-22 23:45:00,68.8,67.9,29.92,West,267,0.0,0.0,97,0.00,,,0.13,LWC V2.00 B2112,2013-05-23 03:45:00,
2013-05-22 23:50:00,68.8,67.9,29.92,West,267,0.0,0.0,97,0.00,,,0.13,LWC V2.00 B2112,2013-05-23 03:50:00,
2013-05-22 23:55:00,68.8,67.9,29.92,West,267,0.0,0.0,97,0.00,,,0.13,LWC V2.00 B2112,2013-05-23 03:55:00,